Time;durP1;ratioP1;P1;durP2;ratioP2;P2;SDS_P1;SDS_P2;PMS_P1;PMS_P2;Temp;Humidity;BMP_temperature;BMP_pressure;BME280_temperature;BME280_humidity;BME280_pressure;Samples;Min_cycle;Max_cycle;Signal;HPM_P1;HPM_P2
2021/12/25 00:01:46;;;;;;;;;;;;;;;;;;5063790;28;20263;-73
2021/12/25 00:04:13;;;;;;;;;;;;;;;;;;5063007;28;19939;-73
2021/12/25 00:06:40;;;;;;;;;;;;;;;;;;5071174;28;19940;-73
2021/12/25 00:09:07;;;;;;;;;;;;;;;;;;5069857;28;20026;-73
2021/12/25 00:11:34;;;;;;;;;;;;;;;;;;5070563;28;19934;-72
2021/12/25 00:14:09;;;;;;;;;;;;;;;;;;5067619;28;19924;-72
2021/12/25 00:16:36;;;;;;;;;;;;;;;;;;5069583;28;19948;-73
2021/12/25 00:19:03;;;;;;;;;;;;;;;;;;5070342;28;19930;-73
2021/12/25 00:21:30;;;;;;;;;;;;;;;;;;5068195;28;19924;-72
2021/12/25 00:23:57;;;;;;;;;;;;;;;;;;5065264;28;20379;-72
2021/12/25 00:26:38;;;;;;;;;;;;;;;;;;5070127;28;20015;-73
2021/12/25 00:29:28;;;;;;;;;;;;;;;;;;5068326;28;19924;-73
2021/12/25 00:32:07;;;;;;;;;;;;;;;;;;5070599;28;19932;-73
2021/12/25 00:34:34;;;;;;;;;;;;;;;;;;5066655;28;19928;-74
2021/12/25 00:37:01;;;;;;;;;;;;;;;;;;5071449;28;19925;-73
2021/12/25 00:39:29;;;;;;;;;;;;;;;;;;5068740;28;20298;-75
2021/12/25 00:41:56;;;;;;;;;;;;;;;;;;5069389;28;19936;-73
2021/12/25 00:44:23;;;;;;;;;;;;;;;;;;5066208;28;19935;-73
2021/12/25 00:46:50;;;;;;;;;;;;;;;;;;5065694;28;19924;-74
2021/12/25 00:49:17;;;;;;;;;;;;;;;;;;5070251;28;19925;-73
2021/12/25 00:51:44;;;;;;;;;;;;;;;;;;5067762;28;20381;-73
2021/12/25 00:54:11;;;;;;;;;;;;;;;;;;5067585;28;19924;-73
2021/12/25 00:56:38;;;;;;;;;;;;;;;;;;5066461;28;19936;-74
2021/12/25 00:59:05;;;;;;;;;;;;;;;;;;5069037;28;19924;-73
2021/12/25 01:01:32;;;;;;;;;;;;;;;;;;5070127;28;19924;-73
2021/12/25 01:04:08;;;;;;;;;;;;;;;;;;5069561;28;20444;-73
2021/12/25 01:06:35;;;;;;;;;;;;;;;;;;5068690;28;19935;-72
2021/12/25 01:09:02;;;;;;;;;;;;;;;;;;5070928;28;20377;-73
2021/12/25 01:11:30;;;;;;;;;;;;;;;;;;5072641;28;20461;-74
2021/12/25 01:14:03;;;;;;;;;;;;;;;;;;5073162;28;20035;-74
2021/12/25 01:16:58;;;;;;;;;;;;;;;;;;5071245;28;19980;-74
2021/12/25 01:25:19;;;;;;;;;;;;;;;;;;5042230;28;19920;-73
2021/12/25 01:28:13;;;;;;;;;;;;;;;;;;5072999;28;19964;-75
2021/12/25 01:30:50;;;;;;;;;;;;;;;;;;5072045;28;19920;-74
2021/12/25 01:33:35;;;;;;;;;;;;;;;;;;5072678;28;20404;-73
2021/12/25 01:38:58;;;;;;;;;;;;;;;;;;5070368;28;20397;-73
2021/12/25 01:41:54;;;;;;;;;;;;;;;;;;5070001;28;20011;-73
2021/12/25 01:50:01;;;;;;;;;;;;;;;;;;5001061;28;19921;-72
2021/12/25 01:52:30;;;;;;;;;;;;;;;;;;5045521;28;19924;-73
2021/12/25 01:54:58;;;;;;;;;;;;;;;;;;5072295;28;19977;-73
2021/12/25 01:57:25;;;;;;;;;;;;;;;;;;5069534;28;20206;-73
2021/12/25 01:59:52;;;;;;;;;;;;;;;;;;5070353;28;19928;-72
2021/12/25 02:02:19;;;;;;;;;;;;;;;;;;5068346;28;19928;-73
2021/12/25 02:04:46;;;;;;;;;;;;;;;;;;5073102;28;19935;-73
2021/12/25 02:07:13;;;;;;;;;;;;;;;;;;5071585;28;19960;-74
2021/12/25 02:09:40;;;;;;;;;;;;;;;;;;5066529;28;20003;-73
2021/12/25 02:12:07;;;;;;;;;;;;;;;;;;5072461;28;19928;-73
2021/12/25 02:14:34;;;;;;;;;;;;;;;;;;5071067;28;19938;-73
2021/12/25 02:17:13;;;;;;;;;;;;;;;;;;5073977;28;19925;-73
2021/12/25 02:19:45;;;;;;;;;;;;;;;;;;5071049;28;20259;-73
2021/12/25 02:22:12;;;;;;;;;;;;;;;;;;5070358;28;20313;-72
2021/12/25 02:24:39;;;;;;;;;;;;;;;;;;5071397;28;19932;-74
2021/12/25 02:27:06;;;;;;;;;;;;;;;;;;5072248;28;20404;-74
2021/12/25 02:29:33;;;;;;;;;;;;;;;;;;5073441;28;20420;-73
2021/12/25 02:32:00;;;;;;;;;;;;;;;;;;5072415;28;19931;-73
2021/12/25 02:34:26;;;;;;;;;;;;;;;;;;5072679;28;19929;-72
2021/12/25 02:36:53;;;;;;;;;;;;;;;;;;5072480;28;19928;-73
2021/12/25 02:39:20;;;;;;;;;;;;;;;;;;5073171;28;20408;-72
2021/12/25 02:41:47;;;;;;;;;;;;;;;;;;5073200;28;19932;-74
2021/12/25 02:44:14;;;;;;;;;;;;;;;;;;5072017;28;20450;-74
2021/12/25 02:46:41;;;;;;;;;;;;;;;;;;5069764;28;20311;-72
2021/12/25 02:49:08;;;;;;;;;;;;;;;;;;5070979;28;20401;-73
2021/12/25 02:51:35;;;;;;;;;;;;;;;;;;5068129;28;20014;-73
2021/12/25 02:54:02;;;;;;;;;;;;;;;;;;5067754;28;19948;-74
2021/12/25 02:56:29;;;;;;;;;;;;;;;;;;5072132;28;20309;-72
2021/12/25 02:58:56;;;;;;;;;;;;;;;;;;5067227;28;20381;-73
2021/12/25 03:01:24;;;;;;;;;;;;;;;;;;5067369;28;20382;-74
2021/12/25 03:03:51;;;;;;;;;;;;;;;;;;5072074;28;19924;-73
2021/12/25 03:06:18;;;;;;;;;;;;;;;;;;5067567;28;20404;-72
2021/12/25 03:08:45;;;;;;;;;;;;;;;;;;5071881;28;19945;-74
2021/12/25 03:11:13;;;;;;;;;;;;;;;;;;5072404;28;20113;-73
2021/12/25 03:13:45;;;;;;;;;;;;;;;;;;5071715;28;20310;-73
2021/12/25 03:16:12;;;;;;;;;;;;;;;;;;5068020;28;19924;-74
2021/12/25 03:18:43;;;;;;;;;;;;;;;;;;5071266;28;19924;-74
2021/12/25 03:21:10;;;;;;;;;;;;;;;;;;5072390;28;19925;-72
2021/12/25 03:23:37;;;;;;;;;;;;;;;;;;5071221;28;20401;-71
2021/12/25 03:26:04;;;;;;;;;;;;;;;;;;5067990;28;19924;-72
2021/12/25 03:28:32;;;;;;;;;;;;;;;;;;5071151;28;19924;-72
2021/12/25 03:31:01;;;;;;;;;;;;;;;;;;5068207;28;19933;-73
2021/12/25 03:33:28;;;;;;;;;;;;;;;;;;5071591;28;19925;-73
2021/12/25 03:35:54;;;;;;;;;;;;;;;;;;5070694;28;19929;-73
2021/12/25 03:38:21;;;;;;;;;;;;;;;;;;5066846;28;19925;-71
2021/12/25 03:40:48;;;;;;;;;;;;;;;;;;5070939;28;19948;-72
2021/12/25 03:43:15;;;;;;;;;;;;;;;;;;5069682;28;20329;-73
2021/12/25 03:45:42;;;;;;;;;;;;;;;;;;5069774;28;19931;-73
2021/12/25 03:48:14;;;;;;;;;;;;;;;;;;5071968;28;19925;-73
2021/12/25 03:53:38;;;;;;;;;;;;;;;;;;5069405;28;19920;-72
2021/12/25 03:58:50;;;;;;;;;;;;;;;;;;5070940;28;19928;-73
2021/12/25 04:01:31;;;;;;;;;;;;;;;;;;5071069;28;20378;-73
2021/12/25 04:04:07;;;;;;;;;;;;;;;;;;5070092;28;19931;-73
2021/12/25 04:06:34;;;;;;;;;;;;;;;;;;5068366;28;20207;-73
2021/12/25 04:09:04;;;;;;;;;;;;;;;;;;5070659;28;20459;-73
2021/12/25 04:11:34;;;;;;;;;;;;;;;;;;5066197;28;19928;-72
2021/12/25 04:14:01;;;;;;;;;;;;;;;;;;5070238;28;20366;-73
2021/12/25 04:16:28;;;;;;;;;;;;;;;;;;5071152;28;19936;-73
2021/12/25 04:18:55;;;;;;;;;;;;;;;;;;5070458;28;19947;-72
2021/12/25 04:21:23;;;;;;;;;;;;;;;;;;5071292;28;19925;-73
2021/12/25 04:23:51;;;;;;;;;;;;;;;;;;5070028;28;19970;-73
2021/12/25 04:26:19;;;;;;;;;;;;;;;;;;5067875;28;20003;-73
2021/12/25 04:28:59;;;;;;;;;;;;;;;;;;5069769;28;19928;-73
2021/12/25 04:31:34;;;;;;;;;;;;;;;;;;5067452;28;19932;-73
2021/12/25 04:48:31;;;;;;;;;;;;;;;;;;5011309;28;19981;-71
2021/12/25 05:01:54;;;;;;;;;;;;;;;;;;5070646;28;19935;-72
2021/12/25 05:04:24;;;;;;;;;;;;;;;;;;5069057;28;19928;-72
2021/12/25 05:06:51;;;;;;;;;;;;;;;;;;5069966;28;19979;-72
2021/12/25 05:09:18;;;;;;;;;;;;;;;;;;5070462;28;19963;-72
2021/12/25 05:11:45;;;;;;;;;;;;;;;;;;5070176;28;19924;-72
2021/12/25 05:14:12;;;;;;;;;;;;;;;;;;5067498;28;19924;-72
2021/12/25 05:16:39;;;;;;;;;;;;;;;;;;5068396;28;19930;-73
2021/12/25 05:19:06;;;;;;;;;;;;;;;;;;5068878;28;19928;-73
2021/12/25 05:21:33;;;;;;;;;;;;;;;;;;5066340;28;19924;-73
2021/12/25 05:24:00;;;;;;;;;;;;;;;;;;5068378;28;19931;-72
2021/12/25 05:26:27;;;;;;;;;;;;;;;;;;5067681;28;20313;-72
2021/12/25 05:28:59;;;;;;;;;;;;;;;;;;5068952;28;20363;-72
2021/12/25 05:31:26;;;;;;;;;;;;;;;;;;5065307;28;19947;-73
2021/12/25 05:33:53;;;;;;;;;;;;;;;;;;5065677;28;19924;-73
2021/12/25 05:36:20;;;;;;;;;;;;;;;;;;5061274;28;19924;-72
2021/12/25 05:38:47;;;;;;;;;;;;;;;;;;5069925;28;20310;-72
2021/12/25 05:41:14;;;;;;;;;;;;;;;;;;5068331;28;20332;-72
2021/12/25 05:43:41;;;;;;;;;;;;;;;;;;5065285;28;20301;-71
2021/12/25 05:46:08;;;;;;;;;;;;;;;;;;5067727;28;20374;-72
2021/12/25 05:48:36;;;;;;;;;;;;;;;;;;5065330;28;19934;-72
2021/12/25 05:51:03;;;;;;;;;;;;;;;;;;5070318;28;19989;-73
2021/12/25 05:53:30;;;;;;;;;;;;;;;;;;5068533;28;19928;-73
2021/12/25 05:55:57;;;;;;;;;;;;;;;;;;5068679;28;19928;-70
2021/12/25 05:58:24;;;;;;;;;;;;;;;;;;5070117;28;19924;-73
2021/12/25 06:00:51;;;;;;;;;;;;;;;;;;5073676;28;19932;-72
2021/12/25 06:03:17;;;;;;;;;;;;;;;;;;5073087;28;19946;-72
2021/12/25 06:05:44;;;;;;;;;;;;;;;;;;5074112;28;19928;-72
2021/12/25 06:08:11;;;;;;;;;;;;;;;;;;5071967;28;19946;-71
2021/12/25 06:10:38;;;;;;;;;;;;;;;;;;5073478;28;19931;-70
2021/12/25 06:13:05;;;;;;;;;;;;;;;;;;5071630;28;19936;-72
2021/12/25 06:15:32;;;;;;;;;;;;;;;;;;5074113;28;19924;-73
2021/12/25 06:17:59;;;;;;;;;;;;;;;;;;5071701;28;19925;-73
2021/12/25 06:20:26;;;;;;;;;;;;;;;;;;5073713;28;20297;-71
2021/12/25 06:22:53;;;;;;;;;;;;;;;;;;5072982;28;20412;-72
2021/12/25 06:25:20;;;;;;;;;;;;;;;;;;5073350;28;19964;-73
2021/12/25 06:27:47;;;;;;;;;;;;;;;;;;5070601;28;19928;-72
2021/12/25 06:30:14;;;;;;;;;;;;;;;;;;5068810;28;20386;-72
2021/12/25 06:32:41;;;;;;;;;;;;;;;;;;5070638;28;20319;-71
2021/12/25 06:35:08;;;;;;;;;;;;;;;;;;5073085;28;20395;-72
2021/12/25 06:37:35;;;;;;;;;;;;;;;;;;5067987;28;19954;-72
2021/12/25 06:40:02;;;;;;;;;;;;;;;;;;5061913;28;19931;-73
2021/12/25 06:42:29;;;;;;;;;;;;;;;;;;5066168;28;20374;-73
2021/12/25 06:44:56;;;;;;;;;;;;;;;;;;5072534;28;19962;-73
2021/12/25 06:47:23;;;;;;;;;;;;;;;;;;5071551;28;19925;-72
2021/12/25 06:49:50;;;;;;;;;;;;;;;;;;5066517;28;19925;-73
2021/12/25 06:52:17;;;;;;;;;;;;;;;;;;5068678;28;19924;-72
2021/12/25 06:54:44;;;;;;;;;;;;;;;;;;5072611;28;20353;-73
2021/12/25 06:57:11;;;;;;;;;;;;;;;;;;5067034;28;19924;-71
2021/12/25 06:59:38;;;;;;;;;;;;;;;;;;5071432;28;20320;-72
2021/12/25 07:02:05;;;;;;;;;;;;;;;;;;5069440;28;19928;-72
2021/12/25 07:04:32;;;;;;;;;;;;;;;;;;5072995;28;19946;-73
2021/12/25 07:06:59;;;;;;;;;;;;;;;;;;5071817;28;19931;-73
2021/12/25 07:09:26;;;;;;;;;;;;;;;;;;5069144;28;20274;-73
2021/12/25 07:11:52;;;;;;;;;;;;;;;;;;5071079;28;19929;-73
2021/12/25 07:14:19;;;;;;;;;;;;;;;;;;5072627;28;19925;-76
2021/12/25 07:16:46;;;;;;;;;;;;;;;;;;5070550;28;19928;-77
2021/12/25 07:19:15;;;;;;;;;;;;;;;;;;5068570;28;20290;-76
2021/12/25 07:21:42;;;;;;;;;;;;;;;;;;5068090;28;20417;-76
2021/12/25 07:24:11;;;;;;;;;;;;;;;;;;5065364;28;19951;-76
2021/12/25 07:26:38;;;;;;;;;;;;;;;;;;5071824;28;19925;-74
2021/12/25 07:29:05;;;;;;;;;;;;;;;;;;5067415;28;19967;-74
2021/12/25 07:31:32;;;;;;;;;;;;;;;;;;5072051;28;19925;-74
2021/12/25 07:33:59;;;;;;;;;;;;;;;;;;5071453;28;19924;-76
2021/12/25 07:36:26;;;;;;;;;;;;;;;;;;5071253;28;20183;-76
2021/12/25 07:38:55;;;;;;;;;;;;;;;;;;5070343;28;19932;-75
2021/12/25 07:41:22;;;;;;;;;;;;;;;;;;5072345;28;19924;-76
2021/12/25 07:43:48;;;;;;;;;;;;;;;;;;5071659;28;19925;-77
2021/12/25 07:46:15;;;;;;;;;;;;;;;;;;5070340;28;19934;-75
2021/12/25 07:48:43;;;;;;;;;;;;;;;;;;5070148;28;19924;-73
2021/12/25 07:51:10;;;;;;;;;;;;;;;;;;5070390;28;19994;-74
2021/12/25 07:53:37;;;;;;;;;;;;;;;;;;5072111;28;20400;-76
2021/12/25 07:56:04;;;;;;;;;;;;;;;;;;5070374;28;19925;-74
2021/12/25 07:58:31;;;;;;;;;;;;;;;;;;5069474;28;19925;-75
2021/12/25 08:00:59;;;;;;;;;;;;;;;;;;5070707;28;19931;-77
2021/12/25 08:03:26;;;;;;;;;;;;;;;;;;5070123;28;19935;-75
2021/12/25 08:05:53;;;;;;;;;;;;;;;;;;5070750;28;19924;-75
2021/12/25 08:08:20;;;;;;;;;;;;;;;;;;5071484;28;20073;-76
2021/12/25 08:10:47;;;;;;;;;;;;;;;;;;5070574;28;20147;-76
2021/12/25 08:13:15;;;;;;;;;;;;;;;;;;5071658;28;19924;-76
2021/12/25 08:15:42;;;;;;;;;;;;;;;;;;5069931;28;19925;-76
2021/12/25 08:18:08;;;;;;;;;;;;;;;;;;5071319;28;20345;-76
2021/12/25 08:20:36;;;;;;;;;;;;;;;;;;5067544;28;19929;-76
2021/12/25 08:23:03;;;;;;;;;;;;;;;;;;5071462;28;20333;-76
2021/12/25 08:25:30;;;;;;;;;;;;;;;;;;5070886;28;19924;-76
2021/12/25 08:27:56;;;;;;;;;;;;;;;;;;5070699;28;19925;-75
2021/12/25 08:30:26;;;;;;;;;;;;;;;;;;5069147;28;20015;-75
2021/12/25 08:32:55;;;;;;;;;;;;;;;;;;5070166;28;20374;-76
2021/12/25 08:35:22;;;;;;;;;;;;;;;;;;5069923;28;19968;-76
2021/12/25 08:37:49;;;;;;;;;;;;;;;;;;5070092;28;19930;-75
2021/12/25 08:40:16;;;;;;;;;;;;;;;;;;5070017;28;20473;-75
2021/12/25 08:42:47;;;;;;;;;;;;;;;;;;5070876;28;19931;-75
2021/12/25 08:45:38;;;;;;;;;;;;;;;;;;5070399;28;19978;-76
2021/12/25 08:48:06;;;;;;;;;;;;;;;;;;5067304;28;19932;-76
2021/12/25 08:50:33;;;;;;;;;;;;;;;;;;5068069;28;19924;-76
2021/12/25 08:53:00;;;;;;;;;;;;;;;;;;5071006;28;19934;-77
2021/12/25 08:55:27;;;;;;;;;;;;;;;;;;5069981;28;19932;-76
2021/12/25 08:57:54;;;;;;;;;;;;;;;;;;5070573;28;19924;-76
2021/12/25 09:00:21;;;;;;;;;;;;;;;;;;5069905;28;20033;-76
2021/12/25 09:02:48;;;;;;;;;;;;;;;;;;5070368;28;19925;-76
2021/12/25 09:05:14;;;;;;;;;;;;;;;;;;5070136;28;19924;-76
2021/12/25 09:07:41;;;;;;;;;;;;;;;;;;5069054;28;20321;-77
2021/12/25 09:10:08;;;;;;;;;;;;;;;;;;5069150;28;19986;-75
2021/12/25 09:12:40;;;;;;;;;;;;;;;;;;5071187;28;19928;-77
2021/12/25 09:15:07;;;;;;;;;;;;;;;;;;5069865;28;19930;-77
2021/12/25 09:17:34;;;;;;;;;;;;;;;;;;5071241;28;20007;-77
2021/12/25 09:20:01;;;;;;;;;;;;;;;;;;5069153;28;20298;-77
2021/12/25 09:22:28;;;;;;;;;;;;;;;;;;5070949;28;20274;-75
2021/12/25 09:24:55;;;;;;;;;;;;;;;;;;5070407;28;20359;-77
2021/12/25 09:27:22;;;;;;;;;;;;;;;;;;5070259;28;19932;-76
2021/12/25 09:29:49;;;;;;;;;;;;;;;;;;5069254;28;19932;-75
2021/12/25 09:32:16;;;;;;;;;;;;;;;;;;5073566;28;19998;-77
2021/12/25 09:34:43;;;;;;;;;;;;;;;;;;5073827;28;19932;-77
2021/12/25 09:37:09;;;;;;;;;;;;;;;;;;5074967;28;20085;-76
2021/12/25 09:39:36;;;;;;;;;;;;;;;;;;5072648;28;19924;-78
2021/12/25 09:42:03;;;;;;;;;;;;;;;;;;5074633;28;19932;-77
2021/12/25 09:44:30;;;;;;;;;;;;;;;;;;5073777;28;20019;-76
2021/12/25 09:46:57;;;;;;;;;;;;;;;;;;5074085;28;19947;-77
2021/12/25 09:49:24;;;;;;;;;;;;;;;;;;5067382;28;19932;-79
2021/12/25 09:51:51;;;;;;;;;;;;;;;;;;5066561;28;19929;-80
2021/12/25 09:54:18;;;;;;;;;;;;;;;;;;5068740;28;19924;-78
2021/12/25 09:56:45;;;;;;;;;;;;;;;;;;5072022;28;19924;-79
2021/12/25 09:59:12;;;;;;;;;;;;;;;;;;5069879;28;20016;-78
2021/12/25 10:01:39;;;;;;;;;;;;;;;;;;5074010;28;20007;-78
2021/12/25 10:04:06;;;;;;;;;;;;;;;;;;5069963;28;19933;-79
2021/12/25 10:06:33;;;;;;;;;;;;;;;;;;5067502;28;19931;-77
2021/12/25 10:09:00;;;;;;;;;;;;;;;;;;5070877;28;19928;-78
2021/12/25 10:11:30;;;;;;;;;;;;;;;;;;5069748;28;20019;-78
2021/12/25 10:13:57;;;;;;;;;;;;;;;;;;5066387;28;20015;-79
2021/12/25 10:16:24;;;;;;;;;;;;;;;;;;5068009;28;19924;-79
2021/12/25 10:18:51;;;;;;;;;;;;;;;;;;5071696;28;19955;-79
2021/12/25 10:21:18;;;;;;;;;;;;;;;;;;5072771;28;19940;-77
2021/12/25 10:23:45;;;;;;;;;;;;;;;;;;5073467;28;20369;-77
2021/12/25 10:26:12;;;;;;;;;;;;;;;;;;5069219;28;19982;-78
2021/12/25 10:28:39;;;;;;;;;;;;;;;;;;5071949;28;19931;-79
2021/12/25 10:31:06;;;;;;;;;;;;;;;;;;5070237;28;19929;-75
2021/12/25 10:33:33;;;;;;;;;;;;;;;;;;5071982;28;20383;-77
2021/12/25 10:36:00;;;;;;;;;;;;;;;;;;5070298;28;20302;-77
2021/12/25 10:38:27;;;;;;;;;;;;;;;;;;5067986;28;20305;-78
2021/12/25 10:40:54;;;;;;;;;;;;;;;;;;5071056;28;19940;-78
2021/12/25 10:43:21;;;;;;;;;;;;;;;;;;5071746;28;19925;-78
2021/12/25 10:45:48;;;;;;;;;;;;;;;;;;5064573;28;19931;-78
2021/12/25 10:48:15;;;;;;;;;;;;;;;;;;5067016;28;19925;-78
2021/12/25 10:50:42;;;;;;;;;;;;;;;;;;5068879;28;19931;-78
2021/12/25 10:53:10;;;;;;;;;;;;;;;;;;5069602;28;19924;-78
2021/12/25 10:55:38;;;;;;;;;;;;;;;;;;5066384;28;20020;-77
2021/12/25 10:58:05;;;;;;;;;;;;;;;;;;5066955;28;20389;-77
2021/12/25 11:00:32;;;;;;;;;;;;;;;;;;5069428;28;19925;-76
2021/12/25 11:02:59;;;;;;;;;;;;;;;;;;5069997;28;19938;-76
2021/12/25 11:05:26;;;;;;;;;;;;;;;;;;5068077;28;19924;-73
2021/12/25 11:07:53;;;;;;;;;;;;;;;;;;5067940;28;20011;-76
2021/12/25 11:10:20;;;;;;;;;;;;;;;;;;5065536;28;19924;-76
2021/12/25 11:12:47;;;;;;;;;;;;;;;;;;5069138;28;20304;-76
2021/12/25 11:15:14;;;;;;;;;;;;;;;;;;5068462;28;19929;-75
2021/12/25 11:17:41;;;;;;;;;;;;;;;;;;5065467;28;19978;-75
2021/12/25 11:20:16;;;;;;;;;;;;;;;;;;5066888;28;20082;-74
2021/12/25 11:22:43;;;;;;;;;;;;;;;;;;5066384;28;20017;-74
2021/12/25 11:25:11;;;;;;;;;;;;;;;;;;5068181;28;19931;-75
2021/12/25 11:27:37;;;;;;;;;;;;;;;;;;5065476;28;19928;-77
2021/12/25 11:30:04;;;;;;;;;;;;;;;;;;5068410;28;19928;-77
2021/12/25 11:32:31;;;;;;;;;;;;;;;;;;5069839;28;20444;-77
2021/12/25 11:34:58;;;;;;;;;;;;;;;;;;5069893;28;19930;-75
2021/12/25 11:37:25;;;;;;;;;;;;;;;;;;5069120;28;20341;-78
2021/12/25 11:39:53;;;;;;;;;;;;;;;;;;5073651;28;19946;-76
2021/12/25 11:42:20;;;;;;;;;;;;;;;;;;5067986;28;19928;-78
2021/12/25 11:44:50;;;;;;;;;;;;;;;;;;5068773;28;19924;-78
2021/12/25 11:47:17;;;;;;;;;;;;;;;;;;5066829;28;20279;-78
2021/12/25 11:49:44;;;;;;;;;;;;;;;;;;5063031;28;21235;-73
2021/12/25 11:52:11;;;;;;;;;;;;;;;;;;5064769;28;19924;-69
2021/12/25 11:54:59;;;;;;;;;;;;;;;;;;5063132;28;20010;-72
2021/12/25 11:57:46;;;;;;;;;;;;;;;;;;5066452;28;19928;-77
2021/12/25 12:00:13;;;;;;;;;;;;;;;;;;5069473;28;20321;-74
2021/12/25 12:02:40;;;;;;;;;;;;;;;;;;5064391;28;20298;-73
2021/12/25 12:05:07;;;;;;;;;;;;;;;;;;5067924;28;19964;-77
2021/12/25 12:07:34;;;;;;;;;;;;;;;;;;5064638;28;19950;-77
2021/12/25 12:10:03;;;;;;;;;;;;;;;;;;5065351;28;19924;-76
2021/12/25 12:12:30;;;;;;;;;;;;;;;;;;5065732;28;19924;-74
2021/12/25 12:14:57;;;;;;;;;;;;;;;;;;5066097;28;19978;-76
2021/12/25 12:17:24;;;;;;;;;;;;;;;;;;5069731;28;19935;-82
2021/12/25 12:19:52;;;;;;;;;;;;;;;;;;5069396;28;20369;-70
2021/12/25 12:22:20;;;;;;;;;;;;;;;;;;5067054;28;19950;-67
2021/12/25 12:25:00;;;;;;;;;;;;;;;;;;5069124;28;20026;-68
2021/12/25 12:27:27;;;;;;;;;;;;;;;;;;5066492;28;19928;-76
2021/12/25 12:29:54;;;;;;;;;;;;;;;;;;5063567;28;19924;-72
2021/12/25 12:32:23;;;;;;;;;;;;;;;;;;5066738;28;19940;-73
2021/12/25 12:34:51;;;;;;;;;;;;;;;;;;5067136;28;19946;-72
2021/12/25 12:37:18;;;;;;;;;;;;;;;;;;5063792;28;19924;-77
2021/12/25 12:39:45;;;;;;;;;;;;;;;;;;5065217;28;19924;-76
2021/12/25 12:42:13;;;;;;;;;;;;;;;;;;5062976;28;19924;-73
2021/12/25 12:44:40;;;;;;;;;;;;;;;;;;5063639;28;19975;-74
2021/12/25 12:47:07;;;;;;;;;;;;;;;;;;5063826;28;19925;-74
2021/12/25 12:49:34;;;;;;;;;;;;;;;;;;5065729;28;19929;-75
2021/12/25 12:52:01;;;;;;;;;;;;;;;;;;5064460;28;19960;-77
2021/12/25 12:54:28;;;;;;;;;;;;;;;;;;5066241;28;19931;-76
2021/12/25 12:56:55;;;;;;;;;;;;;;;;;;5069027;28;19931;-77
2021/12/25 12:59:22;;;;;;;;;;;;;;;;;;5068855;28;19934;-75
2021/12/25 13:01:49;;;;;;;;;;;;;;;;;;5064327;28;21114;-77
2021/12/25 13:04:16;;;;;;;;;;;;;;;;;;5062086;28;20258;-77
2021/12/25 13:06:43;;;;;;;;;;;;;;;;;;5067020;28;19925;-77
2021/12/25 13:09:12;;;;;;;;;;;;;;;;;;5064111;28;20012;-76
2021/12/25 13:11:53;;;;;;;;;;;;;;;;;;5063942;28;19924;-74
2021/12/25 13:14:20;;;;;;;;;;;;;;;;;;5063423;28;19971;-74
2021/12/25 13:16:47;;;;;;;;;;;;;;;;;;5065422;28;19928;-77
2021/12/25 13:19:14;;;;;;;;;;;;;;;;;;5062292;28;19937;-77
2021/12/25 13:21:41;;;;;;;;;;;;;;;;;;5067845;28;19931;-77
2021/12/25 13:24:08;;;;;;;;;;;;;;;;;;5070936;28;20453;-77
2021/12/25 13:26:37;;;;;;;;;;;;;;;;;;5059329;28;20228;-77
2021/12/25 13:29:04;;;;;;;;;;;;;;;;;;5070401;28;19929;-76
2021/12/25 13:31:31;;;;;;;;;;;;;;;;;;5069549;28;19956;-76
2021/12/25 13:33:58;;;;;;;;;;;;;;;;;;5070688;28;19925;-77
2021/12/25 13:36:25;;;;;;;;;;;;;;;;;;5070913;28;20019;-76
2021/12/25 13:38:52;;;;;;;;;;;;;;;;;;5070718;28;19924;-77
2021/12/25 13:41:19;;;;;;;;;;;;;;;;;;5071386;28;19949;-77
2021/12/25 13:43:46;;;;;;;;;;;;;;;;;;5070316;28;19925;-77
2021/12/25 13:46:13;;;;;;;;;;;;;;;;;;5069967;28;19935;-75
2021/12/25 13:48:40;;;;;;;;;;;;;;;;;;5070446;28;20407;-77
2021/12/25 13:51:07;;;;;;;;;;;;;;;;;;5070683;28;19928;-76
2021/12/25 13:53:34;;;;;;;;;;;;;;;;;;5071205;28;19947;-77
2021/12/25 13:56:01;;;;;;;;;;;;;;;;;;5068058;28;20019;-76
2021/12/25 13:58:28;;;;;;;;;;;;;;;;;;5067241;28;19993;-76
2021/12/25 14:00:55;;;;;;;;;;;;;;;;;;5069259;28;19931;-76
2021/12/25 14:03:22;;;;;;;;;;;;;;;;;;5065946;28;19925;-78
2021/12/25 14:05:48;;;;;;;;;;;;;;;;;;5064476;28;20459;-76
2021/12/25 14:08:16;;;;;;;;;;;;;;;;;;5067996;28;19925;-79
2021/12/25 14:10:43;;;;;;;;;;;;;;;;;;5063494;28;20023;-77
2021/12/25 14:13:12;;;;;;;;;;;;;;;;;;5064990;28;20354;-77
2021/12/25 14:15:39;;;;;;;;;;;;;;;;;;5065907;28;20019;-78
2021/12/25 14:18:06;;;;;;;;;;;;;;;;;;5065577;28;19960;-78
2021/12/25 14:20:33;;;;;;;;;;;;;;;;;;5069234;28;19939;-73
2021/12/25 14:23:00;;;;;;;;;;;;;;;;;;5069104;28;20287;-78
2021/12/25 14:25:27;;;;;;;;;;;;;;;;;;5068461;28;19928;-80
2021/12/25 14:27:54;;;;;;;;;;;;;;;;;;5069747;28;20394;-75
2021/12/25 14:30:21;;;;;;;;;;;;;;;;;;5068194;28;19946;-76
2021/12/25 14:32:48;;;;;;;;;;;;;;;;;;5065978;28;19925;-74
2021/12/25 14:35:15;;;;;;;;;;;;;;;;;;5068090;28;19929;-75
2021/12/25 14:37:41;;;;;;;;;;;;;;;;;;5068170;28;20027;-78
2021/12/25 14:40:09;;;;;;;;;;;;;;;;;;5069298;28;19924;-75
2021/12/25 14:42:36;;;;;;;;;;;;;;;;;;5067021;28;20518;-75
2021/12/25 14:45:03;;;;;;;;;;;;;;;;;;5067626;28;19924;-76
2021/12/25 14:47:31;;;;;;;;;;;;;;;;;;5068540;28;19935;-76
2021/12/25 14:49:58;;;;;;;;;;;;;;;;;;5062967;28;19932;-73
2021/12/25 14:52:25;;;;;;;;;;;;;;;;;;5068631;28;19939;-75
2021/12/25 14:54:52;;;;;;;;;;;;;;;;;;5069617;28;19925;-73
2021/12/25 14:57:19;;;;;;;;;;;;;;;;;;5066294;28;19932;-75
2021/12/25 14:59:46;;;;;;;;;;;;;;;;;;5068182;28;19924;-73
2021/12/25 15:02:13;;;;;;;;;;;;;;;;;;5070558;28;20385;-74
2021/12/25 15:04:40;;;;;;;;;;;;;;;;;;5065051;28;21324;-78
2021/12/25 15:07:07;;;;;;;;;;;;;;;;;;5069845;28;19935;-74
2021/12/25 15:09:35;;;;;;;;;;;;;;;;;;5066697;28;19931;-75
2021/12/25 15:12:02;;;;;;;;;;;;;;;;;;5069331;28;19947;-74
2021/12/25 15:14:29;;;;;;;;;;;;;;;;;;5068330;28;19924;-74
2021/12/25 15:16:56;;;;;;;;;;;;;;;;;;5067955;28;19991;-76
2021/12/25 15:19:23;;;;;;;;;;;;;;;;;;5066577;28;19928;-76
2021/12/25 15:21:50;;;;;;;;;;;;;;;;;;5074060;28;19933;-76
2021/12/25 15:24:17;;;;;;;;;;;;;;;;;;5069905;28;19928;-78
2021/12/25 15:26:44;;;;;;;;;;;;;;;;;;5069911;28;19925;-79
2021/12/25 15:29:11;;;;;;;;;;;;;;;;;;5064516;28;20305;-75
2021/12/25 15:31:38;;;;;;;;;;;;;;;;;;5066072;28;19928;-74
2021/12/25 15:34:05;;;;;;;;;;;;;;;;;;5066382;28;19935;-77
2021/12/25 15:36:33;;;;;;;;;;;;;;;;;;5068964;28;19925;-77
2021/12/25 15:39:00;;;;;;;;;;;;;;;;;;5067371;28;19925;-75
2021/12/25 15:41:27;;;;;;;;;;;;;;;;;;5063760;28;19929;-77
2021/12/25 15:43:56;;;;;;;;;;;;;;;;;;5067215;28;19943;-77
2021/12/25 15:46:23;;;;;;;;;;;;;;;;;;5064960;28;19928;-71
2021/12/25 15:48:50;;;;;;;;;;;;;;;;;;5064040;28;19924;-71
2021/12/25 15:51:17;;;;;;;;;;;;;;;;;;5067908;28;19931;-71
2021/12/25 15:53:44;;;;;;;;;;;;;;;;;;5066612;28;19928;-71
2021/12/25 15:56:11;;;;;;;;;;;;;;;;;;5066033;28;19932;-72
2021/12/25 15:58:38;;;;;;;;;;;;;;;;;;5064202;28;19936;-70
2021/12/25 16:01:05;;;;;;;;;;;;;;;;;;5067860;28;19925;-74
2021/12/25 16:03:33;;;;;;;;;;;;;;;;;;5065416;28;19931;-72
2021/12/25 16:06:00;;;;;;;;;;;;;;;;;;5068030;28;19943;-78
2021/12/25 16:08:27;;;;;;;;;;;;;;;;;;5066515;28;19925;-76
2021/12/25 16:10:55;;;;;;;;;;;;;;;;;;5066663;28;20306;-73
2021/12/25 16:13:22;;;;;;;;;;;;;;;;;;5068523;28;20374;-74
2021/12/25 16:15:49;;;;;;;;;;;;;;;;;;5067179;28;19924;-74
2021/12/25 16:18:16;;;;;;;;;;;;;;;;;;5064675;28;19925;-74
2021/12/25 16:20:43;;;;;;;;;;;;;;;;;;5067958;28;20083;-73
2021/12/25 16:23:10;;;;;;;;;;;;;;;;;;5067625;28;20028;-74
2021/12/25 16:25:37;;;;;;;;;;;;;;;;;;5061677;28;19944;-73
2021/12/25 16:28:04;;;;;;;;;;;;;;;;;;5068631;28;20007;-73
2021/12/25 16:30:31;;;;;;;;;;;;;;;;;;5066867;28;19931;-73
2021/12/25 16:32:59;;;;;;;;;;;;;;;;;;5064650;28;19932;-73
2021/12/25 16:35:26;;;;;;;;;;;;;;;;;;5065076;28;19925;-72
2021/12/25 16:37:53;;;;;;;;;;;;;;;;;;5064994;28;20408;-73
2021/12/25 16:40:20;;;;;;;;;;;;;;;;;;5066612;28;19978;-73
2021/12/25 16:42:47;;;;;;;;;;;;;;;;;;5063176;28;20244;-72
2021/12/25 16:45:14;;;;;;;;;;;;;;;;;;5061227;28;20019;-72
2021/12/25 16:47:41;;;;;;;;;;;;;;;;;;5065553;28;19937;-74
2021/12/25 16:50:07;;;;;;;;;;;;;;;;;;5065584;28;19935;-73
2021/12/25 16:52:34;;;;;;;;;;;;;;;;;;5063008;28;19925;-73
2021/12/25 16:55:01;;;;;;;;;;;;;;;;;;5064042;28;19931;-72
2021/12/25 16:57:28;;;;;;;;;;;;;;;;;;5065439;28;19925;-73
2021/12/25 16:59:55;;;;;;;;;;;;;;;;;;5064962;28;20277;-73
2021/12/25 17:02:25;;;;;;;;;;;;;;;;;;5066179;28;19928;-72
2021/12/25 17:04:52;;;;;;;;;;;;;;;;;;5063086;28;20435;-72
2021/12/25 17:07:19;;;;;;;;;;;;;;;;;;5065415;28;19928;-72
2021/12/25 17:09:47;;;;;;;;;;;;;;;;;;5066153;28;19925;-71
2021/12/25 17:12:14;;;;;;;;;;;;;;;;;;5061813;28;19970;-72
2021/12/25 17:14:41;;;;;;;;;;;;;;;;;;5065193;28;19924;-73
2021/12/25 17:17:08;;;;;;;;;;;;;;;;;;5062658;28;20058;-71
2021/12/25 17:19:35;;;;;;;;;;;;;;;;;;5062289;22;20329;-71
2021/12/25 17:22:01;;;;;;;;;;;;;;;;;;5022259;28;19925;-71
2021/12/25 17:24:29;;;;;;;;;;;;;;;;;;5024487;28;20286;-72
2021/12/25 17:26:57;;;;;;;;;;;;;;;;;;5018486;28;19932;-73
2021/12/25 17:29:23;;;;;;;;;;;;;;;;;;5027522;28;20020;-71
2021/12/25 17:31:50;;;;;;;;;;;;;;;;;;5024280;28;19925;-70
2021/12/25 17:34:17;;;;;;;;;;;;;;;;;;5022474;28;19932;-71
2021/12/25 17:36:47;;;;;;;;;;;;;;;;;;5019810;28;20390;-73